Time;durP1;ratioP1;P1;durP2;ratioP2;P2;SDS_P1;SDS_P2;PMS_P1;PMS_P2;Temp;Humidity;BMP_temperature;BMP_pressure;BME280_temperature;BME280_humidity;BME280_pressure;Samples;Min_cycle;Max_cycle;Signal;HPM_P1;HPM_P2
2022/11/05 00:09:28;;;;;;;;;;;;;;;-148.88;100.00;76350.06;5076202;28;19961;-86
2022/11/05 00:17:22;;;;;;;;;;;;;;;-148.88;100.00;76362.25;5076350;28;19958;-86
2022/11/05 00:19:50;;;;;;;;;;;;;;;-148.88;100.00;76366.31;5076218;28;19908;-86
2022/11/05 00:25:17;;;;;;;;;;;;;;;-148.88;100.00;76380.53;5076579;28;20015;-86
2022/11/05 00:27:46;;;;;;;;;;;;;;;-148.88;100.00;76378.50;5075818;28;19912;-86
2022/11/05 00:30:13;;;;;;;;;;;;;;;-148.88;100.00;76378.50;5075936;28;19910;-87
2022/11/05 00:32:38;;;;;;;;;;;;;;;-148.88;100.00;76380.53;5075706;28;19908;-87
2022/11/05 00:35:04;;;;;;;;;;;;;;;-148.88;100.00;76378.50;5074363;28;19915;-85
2022/11/05 00:37:29;;;;;;;;;;;;;;;-148.88;100.00;76382.56;5074330;28;19916;-86
2022/11/05 00:39:54;;;;;;;;;;;;;;;-148.88;100.00;76384.59;5075982;28;19908;-86
2022/11/05 00:45:05;;;;;;;;;;;;;;;-148.88;100.00;76388.66;5075719;28;19923;-85
2022/11/05 00:50:15;;;;;;;;;;;;;;;-148.88;100.00;76388.66;5075423;28;19920;-86
2022/11/05 00:52:56;;;;;;;;;;;;;;;-148.88;100.00;76402.88;5073994;28;19916;-86
2022/11/05 00:55:27;;;;;;;;;;;;;;;-148.88;100.00;76394.75;5075381;28;20001;-86
2022/11/05 00:57:54;;;;;;;;;;;;;;;-148.88;100.00;76402.88;5075288;28;20267;-86
2022/11/05 01:00:20;;;;;;;;;;;;;;;-148.88;100.00;76417.09;5075069;28;19909;-86
2022/11/05 01:02:46;;;;;;;;;;;;;;;-148.88;100.00;76413.03;5074433;28;19915;-86
2022/11/05 01:05:11;;;;;;;;;;;;;;;-148.88;100.00;76411.00;5075613;28;19912;-86
2022/11/05 01:07:36;;;;;;;;;;;;;;;-148.88;100.00;76413.03;5074686;28;19939;-86
2022/11/05 01:10:01;;;;;;;;;;;;;;;-148.88;100.00;76425.25;5075447;28;19908;-86
2022/11/05 01:12:27;;;;;;;;;;;;;;;-148.88;100.00;76423.19;5073989;28;19908;-86
2022/11/05 01:14:53;;;;;;;;;;;;;;;-148.88;100.00;76419.16;5075182;28;20300;-86
2022/11/05 01:17:18;;;;;;;;;;;;;;;-148.88;100.00;76421.19;5075008;28;19909;-86
2022/11/05 01:19:43;;;;;;;;;;;;;;;-148.88;100.00;76431.34;5074731;28;19908;-85
2022/11/05 01:22:08;;;;;;;;;;;;;;;-148.88;100.00;76431.34;5074839;28;19958;-86
2022/11/05 01:24:33;;;;;;;;;;;;;;;-148.88;100.00;76415.06;5073329;28;20338;-86
2022/11/05 01:26:58;;;;;;;;;;;;;;;-148.88;100.00;76413.03;5074421;28;19915;-86
2022/11/05 01:29:24;;;;;;;;;;;;;;;-148.88;100.00;76411.00;5074589;28;19958;-86
2022/11/05 01:31:49;;;;;;;;;;;;;;;-148.88;100.00;76417.09;5073271;28;19908;-86
2022/11/05 01:34:14;;;;;;;;;;;;;;;-148.88;100.00;76419.16;5074467;28;20271;-86
2022/11/05 01:36:39;;;;;;;;;;;;;;;-148.88;100.00;76419.16;5074385;28;19912;-84
2022/11/05 01:39:04;;;;;;;;;;;;;;;-148.88;100.00;76429.31;5074128;28;20286;-86
2022/11/05 01:41:30;;;;;;;;;;;;;;;-148.88;100.00;76427.28;5074221;28;20273;-85
2022/11/05 01:43:58;;;;;;;;;;;;;;;-148.88;100.00;76425.25;5074139;28;19958;-86
2022/11/05 01:46:43;;;;;;;;;;;;;;;-148.88;100.00;76427.28;5072955;28;19934;-86
2022/11/05 01:49:14;;;;;;;;;;;;;;;-148.88;100.00;76431.34;5073495;28;20286;-86
2022/11/05 01:51:40;;;;;;;;;;;;;;;-148.88;100.00;76433.38;5074063;28;19916;-86
2022/11/05 01:54:07;;;;;;;;;;;;;;;-148.88;100.00;76429.31;5074069;28;19908;-86
2022/11/05 01:56:37;;;;;;;;;;;;;;;-148.88;100.00;76439.47;5074430;28;19909;-86
2022/11/05 01:59:09;;;;;;;;;;;;;;;-148.88;100.00;76447.59;5074015;28;19908;-86
2022/11/05 02:01:35;;;;;;;;;;;;;;;-148.88;100.00;76451.66;5074200;28;20333;-86
2022/11/05 02:04:01;;;;;;;;;;;;;;;-148.88;100.00;76455.72;5072936;28;19908;-86
2022/11/05 02:06:29;;;;;;;;;;;;;;;-148.88;100.00;76451.66;5073734;28;20274;-86
2022/11/05 02:09:06;;;;;;;;;;;;;;;-148.88;100.00;76455.72;5074113;28;19919;-86
2022/11/05 02:11:31;;;;;;;;;;;;;;;-148.88;100.00;76459.78;5073776;28;19912;-86
2022/11/05 02:13:56;;;;;;;;;;;;;;;-148.88;100.00;76457.75;5073899;28;19947;-86
2022/11/05 02:16:48;;;;;;;;;;;;;;;-148.88;100.00;76467.91;5073642;28;20380;-86
2022/11/05 02:19:16;;;;;;;;;;;;;;;-148.88;100.00;76467.91;5071504;28;19912;-87
2022/11/05 02:21:59;;;;;;;;;;;;;;;-148.88;100.00;76476.03;5073594;28;19931;-86
2022/11/05 02:24:44;;;;;;;;;;;;;;;-148.88;100.00;76471.97;5072516;28;20281;-86
2022/11/05 02:27:19;;;;;;;;;;;;;;;-148.88;100.00;76471.97;5072133;28;19912;-86
2022/11/05 02:30:02;;;;;;;;;;;;;;;-148.88;100.00;76492.28;5073641;28;19977;-85
2022/11/05 02:32:27;;;;;;;;;;;;;;;-148.88;100.00;76490.25;5073614;28;19908;-86
2022/11/05 02:34:59;;;;;;;;;;;;;;;-148.88;100.00;76500.41;5073544;28;20420;-85
2022/11/05 02:37:33;;;;;;;;;;;;;;;-148.88;100.00;76492.28;5073324;28;19908;-86
2022/11/05 02:39:58;;;;;;;;;;;;;;;-148.88;100.00;76506.50;5072146;28;19908;-86
2022/11/05 02:42:37;;;;;;;;;;;;;;;-148.88;100.00;76500.41;5072836;28;19918;-86
2022/11/05 02:45:21;;;;;;;;;;;;;;;-148.88;100.00;76496.34;5072143;28;19959;-85
2022/11/05 02:47:50;;;;;;;;;;;;;;;-148.88;100.00;76500.41;5073199;28;20366;-86
2022/11/05 02:50:31;;;;;;;;;;;;;;;-148.88;100.00;76506.50;5073398;28;19959;-86
2022/11/05 02:53:05;;;;;;;;;;;;;;;-148.88;100.00;76514.63;5073281;28;19915;-86
2022/11/05 02:55:33;;;;;;;;;;;;;;;-148.88;100.00;76522.75;5072081;28;19961;-86
2022/11/05 02:58:00;;;;;;;;;;;;;;;-148.88;100.00;76524.78;5073396;28;20037;-85
2022/11/05 03:00:37;;;;;;;;;;;;;;;-148.88;100.00;76528.84;5073360;28;20388;-86
2022/11/05 03:03:04;;;;;;;;;;;;;;;-148.88;100.00;76532.91;5072287;28;20342;-86
2022/11/05 03:05:38;;;;;;;;;;;;;;;-148.88;100.00;76543.06;5073276;28;19935;-86
2022/11/05 03:08:09;;;;;;;;;;;;;;;-148.88;100.00;76549.16;5073350;28;19912;-86
2022/11/05 03:10:44;;;;;;;;;;;;;;;-148.88;100.00;76565.41;5073234;28;20358;-86
2022/11/05 03:13:30;;;;;;;;;;;;;;;-148.88;100.00;76581.66;5073356;28;20061;-86
2022/11/05 03:15:57;;;;;;;;;;;;;;;-148.88;100.00;76585.72;5072607;28;19912;-84
2022/11/05 03:18:41;;;;;;;;;;;;;;;-148.88;100.00;76585.72;5073140;28;19991;-84
2022/11/05 03:21:19;;;;;;;;;;;;;;;-148.88;100.00;76593.84;5072939;28;20549;-86
2022/11/05 03:23:48;;;;;;;;;;;;;;;-148.88;100.00;76597.91;5073287;28;20073;-87
2022/11/05 03:26:18;;;;;;;;;;;;;;;-148.88;100.00;76593.84;5073071;28;19908;-87
2022/11/05 03:28:46;;;;;;;;;;;;;;;-148.88;100.00;76604.00;5073013;28;20017;-85
2022/11/05 03:31:13;;;;;;;;;;;;;;;-148.88;100.00;76599.94;5073238;28;19908;-88
2022/11/05 03:33:40;;;;;;;;;;;;;;;-148.88;100.00;76612.13;5076497;28;19909;-87
2022/11/05 03:36:09;;;;;;;;;;;;;;;-148.88;100.00;76626.38;5076085;28;19999;-84
2022/11/05 03:38:37;;;;;;;;;;;;;;;-148.88;100.00;76634.50;5076652;28;19931;-86
2022/11/05 03:41:06;;;;;;;;;;;;;;;-148.88;100.00;76630.44;5076700;28;20008;-86
2022/11/05 03:43:34;;;;;;;;;;;;;;;-148.88;100.00;76638.56;5076712;28;19908;-86
2022/11/05 03:46:08;;;;;;;;;;;;;;;-148.88;100.00;76636.53;5077102;28;20431;-85
2022/11/05 03:48:36;;;;;;;;;;;;;;;-148.88;100.00;76642.63;5076429;28;19991;-86
2022/11/05 03:51:05;;;;;;;;;;;;;;;-148.88;100.00;76646.69;5077249;28;19995;-87
2022/11/05 03:53:32;;;;;;;;;;;;;;;-148.88;100.00;76644.66;5099874;22;20401;-86
2022/11/05 03:55:58;;;;;;;;;;;;;;;-148.88;100.00;76656.84;5077223;28;19919;-86
2022/11/05 03:58:25;;;;;;;;;;;;;;;-148.88;100.00;76648.72;5077415;28;19953;-87
2022/11/05 04:00:51;;;;;;;;;;;;;;;-148.88;100.00;76654.81;5077626;28;19991;-83
2022/11/05 04:03:16;;;;;;;;;;;;;;;-148.88;100.00;76658.88;5076420;28;20013;-84
2022/11/05 04:05:41;;;;;;;;;;;;;;;-148.88;100.00;76667.00;5075883;28;19908;-86
2022/11/05 04:13:35;;;;;;;;;;;;;;;-148.88;100.00;76687.31;5078583;28;20092;-89
2022/11/05 04:18:44;;;;;;;;;;;;;;;-148.88;100.00;76695.44;5076671;28;19916;-86
2022/11/05 04:24:09;;;;;;;;;;;;;;;-148.88;100.00;76699.50;5077053;28;19927;-85
2022/11/05 04:26:35;;;;;;;;;;;;;;;-148.88;100.00;76693.41;5076958;28;19912;-86
2022/11/05 04:31:44;;;;;;;;;;;;;;;-148.88;100.00;76707.63;5076202;28;19915;-85
2022/11/05 04:34:09;;;;;;;;;;;;;;;-148.88;100.00;76699.50;5076414;28;19908;-86
2022/11/05 04:36:35;;;;;;;;;;;;;;;-148.88;100.00;76695.44;5074919;28;19971;-88
2022/11/05 04:39:00;;;;;;;;;;;;;;;-148.88;100.00;76691.38;5074330;28;19916;-89
2022/11/05 04:41:25;;;;;;;;;;;;;;;-148.88;100.00;76685.28;5074871;28;19915;-85
2022/11/05 04:43:51;;;;;;;;;;;;;;;-148.88;100.00;76687.31;5074040;28;19958;-86
2022/11/05 04:46:16;;;;;;;;;;;;;;;-148.88;100.00;76687.31;5075159;28;20247;-86
2022/11/05 04:48:41;;;;;;;;;;;;;;;-148.88;100.00;76683.25;5074609;28;19916;-86
2022/11/05 04:51:06;;;;;;;;;;;;;;;-148.88;100.00;76687.31;5074577;28;20439;-85
2022/11/05 04:53:31;;;;;;;;;;;;;;;-148.88;100.00;76683.25;5074376;28;20274;-86
2022/11/05 04:56:15;;;;;;;;;;;;;;;-148.88;100.00;76677.16;5074286;28;20307;-86
2022/11/05 04:58:41;;;;;;;;;;;;;;;-148.88;100.00;76675.13;5075012;28;20316;-84
2022/11/05 05:01:10;;;;;;;;;;;;;;;-148.88;100.00;76671.06;5074183;28;20366;-84
2022/11/05 05:03:36;;;;;;;;;;;;;;;-148.88;100.00;76679.19;5074356;28;19916;-83
2022/11/05 05:06:01;;;;;;;;;;;;;;;-148.88;100.00;76679.19;5074336;28;19908;-84
2022/11/05 05:08:26;;;;;;;;;;;;;;;-148.88;100.00;76675.13;5073954;28;20346;-85
2022/11/05 05:10:51;;;;;;;;;;;;;;;-148.88;100.00;76679.19;5073789;28;19908;-84
2022/11/05 05:13:17;;;;;;;;;;;;;;;-148.88;100.00;76677.16;5073955;28;19908;-85
2022/11/05 05:15:42;;;;;;;;;;;;;;;-148.88;100.00;76683.25;5073963;28;20373;-84
2022/11/05 05:18:07;;;;;;;;;;;;;;;-148.88;100.00;76687.31;5074132;28;19908;-85
2022/11/05 05:23:16;;;;;;;;;;;;;;;-148.88;100.00;76699.50;5075385;28;19932;-85
2022/11/05 05:25:42;;;;;;;;;;;;;;;-148.88;100.00;76703.56;5073950;28;20298;-85
2022/11/05 05:28:07;;;;;;;;;;;;;;;-148.88;100.00;76701.53;5073894;28;19970;-85
2022/11/05 05:30:32;;;;;;;;;;;;;;;-148.88;100.00;76711.69;5073609;28;20360;-85
2022/11/05 05:33:00;;;;;;;;;;;;;;;-148.88;100.00;76707.63;5073462;28;19908;-84
2022/11/05 05:35:25;;;;;;;;;;;;;;;-148.88;100.00;76713.72;5073513;28;19908;-85
2022/11/05 05:37:53;;;;;;;;;;;;;;;-148.88;100.00;76709.66;5073437;28;19935;-84
2022/11/05 05:40:19;;;;;;;;;;;;;;;-148.88;100.00;76713.72;5074179;28;20273;-86
2022/11/05 05:42:44;;;;;;;;;;;;;;;-148.88;100.00;76713.72;5073354;28;19908;-85
2022/11/05 05:45:10;;;;;;;;;;;;;;;-148.88;100.00;76711.69;5073195;28;19912;-85
2022/11/05 05:47:35;;;;;;;;;;;;;;;-148.88;100.00;76703.56;5073303;28;19912;-87
2022/11/05 05:50:00;;;;;;;;;;;;;;;-148.88;100.00;76697.47;5074707;28;19908;-86
2022/11/05 05:52:26;;;;;;;;;;;;;;;-148.88;100.00;76703.56;5057052;28;19967;-85
2022/11/05 05:54:52;;;;;;;;;;;;;;;-148.88;100.00;76711.69;5072350;28;20322;-85
2022/11/05 05:57:17;;;;;;;;;;;;;;;-148.88;100.00;76703.56;5073160;28;19912;-86
2022/11/05 05:59:42;;;;;;;;;;;;;;;-148.88;100.00;76703.56;5072971;28;19915;-84
2022/11/05 06:02:07;;;;;;;;;;;;;;;-148.88;100.00;76707.63;5073084;28;19957;-84
2022/11/05 06:04:32;;;;;;;;;;;;;;;-148.88;100.00;76693.41;5072974;28;20285;-83
2022/11/05 06:06:58;;;;;;;;;;;;;;;-148.88;100.00;76691.38;5073837;28;20293;-82
2022/11/05 06:09:23;;;;;;;;;;;;;;;-148.88;100.00;76691.38;5073945;28;19912;-84
2022/11/05 06:11:48;;;;;;;;;;;;;;;-148.88;100.00;76689.34;5072902;28;19942;-85
2022/11/05 06:14:14;;;;;;;;;;;;;;;-148.88;100.00;76683.25;5072679;28;19916;-88
2022/11/05 06:16:39;;;;;;;;;;;;;;;-148.88;100.00;76683.25;5072698;28;19935;-88
2022/11/05 06:19:05;;;;;;;;;;;;;;;-148.88;100.00;76677.16;5072674;28;19912;-88
2022/11/05 06:21:30;;;;;;;;;;;;;;;-148.88;100.00;76683.25;5072507;28;20319;-87
2022/11/05 06:23:55;;;;;;;;;;;;;;;-148.88;100.00;76679.19;5072375;28;20391;-89
2022/11/05 06:26:20;;;;;;;;;;;;;;;-148.88;100.00;76679.19;5074310;28;19916;-86
2022/11/05 06:28:46;;;;;;;;;;;;;;;-148.88;100.00;76675.13;5073017;28;19913;-85
2022/11/05 06:31:12;;;;;;;;;;;;;;;-148.88;100.00;76675.13;5074899;28;19915;-86
2022/11/05 06:33:38;;;;;;;;;;;;;;;-148.88;100.00;76677.16;5072722;28;19914;-85
2022/11/05 06:36:22;;;;;;;;;;;;;;;-148.88;100.00;76675.13;5073080;28;20002;-86
2022/11/05 06:38:47;;;;;;;;;;;;;;;-148.88;100.00;76677.16;5073582;28;20273;-85
2022/11/05 06:41:13;;;;;;;;;;;;;;;-148.88;100.00;76683.25;5074277;28;19915;-86
2022/11/05 06:43:38;;;;;;;;;;;;;;;-148.88;100.00;76679.19;5072603;28;19908;-84
2022/11/05 06:46:03;;;;;;;;;;;;;;;-148.88;100.00;76683.25;5072564;28;19913;-85
2022/11/05 06:48:29;;;;;;;;;;;;;;;-148.88;100.00;76683.25;5072566;28;19918;-85
2022/11/05 06:50:54;;;;;;;;;;;;;;;-148.88;100.00;76691.38;5072633;28;19908;-85
2022/11/05 06:53:19;;;;;;;;;;;;;;;-148.88;100.00;76691.38;5072390;28;20311;-85
2022/11/05 06:55:46;;;;;;;;;;;;;;;-148.88;100.00;76701.53;5073937;28;20385;-84
2022/11/05 06:58:12;;;;;;;;;;;;;;;-148.88;100.00;76707.63;5073761;28;19925;-84
2022/11/05 07:00:37;;;;;;;;;;;;;;;-148.88;100.00;76707.63;5072359;28;19912;-84
2022/11/05 07:03:03;;;;;;;;;;;;;;;-148.88;100.00;76707.63;5072476;28;19909;-84
2022/11/05 07:05:28;;;;;;;;;;;;;;;-148.88;100.00;76705.59;5074310;28;20010;-83
2022/11/05 07:07:53;;;;;;;;;;;;;;;-148.88;100.00;76711.69;5077617;28;20009;-84
2022/11/05 07:10:19;;;;;;;;;;;;;;;-148.88;100.00;76707.63;5077123;28;19915;-85
2022/11/05 07:12:44;;;;;;;;;;;;;;;-148.88;100.00;76709.66;5076535;28;19914;-84
2022/11/05 07:15:10;;;;;;;;;;;;;;;-148.88;100.00;76715.75;5076240;28;19955;-85
2022/11/05 07:17:36;;;;;;;;;;;;;;;-148.88;100.00;76723.88;5076534;28;19908;-84
2022/11/05 07:20:02;;;;;;;;;;;;;;;-148.88;100.00;76715.75;5076350;28;19909;-84
2022/11/05 07:22:27;;;;;;;;;;;;;;;-148.88;100.00;76713.72;5075979;28;19908;-85
2022/11/05 07:24:53;;;;;;;;;;;;;;;-148.88;100.00;76705.59;5076221;28;19964;-85
2022/11/05 07:27:18;;;;;;;;;;;;;;;-148.88;100.00;76703.56;5076631;28;20006;-85
2022/11/05 07:29:43;;;;;;;;;;;;;;;-148.88;100.00;76695.44;5076027;28;20042;-83
2022/11/05 07:32:08;;;;;;;;;;;;;;;-148.88;100.00;76707.63;5076478;28;20057;-84
2022/11/05 07:34:33;;;;;;;;;;;;;;;-148.88;100.00;76703.56;5077538;28;19943;-85
2022/11/05 07:36:59;;;;;;;;;;;;;;;-148.88;100.00;76697.47;5076326;28;19999;-84
2022/11/05 07:39:24;;;;;;;;;;;;;;;-148.88;100.00;76701.53;5076122;28;20328;-86
2022/11/05 07:41:53;;;;;;;;;;;;;;;-148.88;100.00;76687.31;5076465;28;19908;-84
2022/11/05 07:44:19;;;;;;;;;;;;;;;-148.88;100.00;76689.34;5077498;28;19999;-83
2022/11/05 07:46:44;;;;;;;;;;;;;;;-148.88;100.00;76693.41;5077205;28;20405;-83
2022/11/05 07:49:09;;;;;;;;;;;;;;;-148.88;100.00;76693.41;5077391;28;19916;-86
2022/11/05 07:51:35;;;;;;;;;;;;;;;-148.88;100.00;76701.53;5076279;28;19962;-83
2022/11/05 07:54:00;;;;;;;;;;;;;;;-148.88;100.00;76699.50;5076162;28;19977;-82
2022/11/05 07:56:25;;;;;;;;;;;;;;;-148.88;100.00;76707.63;5077420;28;19908;-84
2022/11/05 07:58:50;;;;;;;;;;;;;;;-148.88;100.00;76697.47;5075974;28;19919;-84
2022/11/05 08:01:15;;;;;;;;;;;;;;;-148.88;100.00;76695.44;5075961;28;19954;-80
2022/11/05 08:03:41;;;;;;;;;;;;;;;-148.88;100.00;76699.50;5077375;28;20061;-84
2022/11/05 08:06:06;;;;;;;;;;;;;;;-148.88;100.00;76693.41;5075452;28;19920;-84
2022/11/05 08:08:31;;;;;;;;;;;;;;;-148.88;100.00;76679.19;5075482;28;20302;-85
2022/11/05 08:11:06;;;;;;;;;;;;;;;-148.88;100.00;76667.00;5075640;28;20324;-83
2022/11/05 08:13:32;;;;;;;;;;;;;;;-148.88;100.00;76679.19;5076951;28;19915;-85
2022/11/05 08:15:58;;;;;;;;;;;;;;;-148.88;100.00;76685.28;5075703;28;19908;-84
2022/11/05 08:18:30;;;;;;;;;;;;;;;-148.88;100.00;76667.00;5075492;28;19908;-84
2022/11/05 08:20:55;;;;;;;;;;;;;;;-148.88;100.00;76664.97;5075360;28;20378;-84
2022/11/05 08:23:21;;;;;;;;;;;;;;;-148.88;100.00;76658.88;5075358;28;20012;-84
2022/11/05 08:25:46;;;;;;;;;;;;;;;-148.88;100.00;76646.69;5075469;28;20330;-86
2022/11/05 08:28:12;;;;;;;;;;;;;;;-148.88;100.00;76654.81;5075135;28;19912;-83
2022/11/05 08:30:37;;;;;;;;;;;;;;;-148.88;100.00;76654.81;5074903;28;20367;-82
2022/11/05 08:33:07;;;;;;;;;;;;;;;-148.88;100.00;76652.78;5085104;28;19908;-84
2022/11/05 08:35:33;;;;;;;;;;;;;;;-148.88;100.00;76640.59;5093469;28;19909;-83
2022/11/05 08:38:01;;;;;;;;;;;;;;;-148.88;100.00;76646.69;5093210;28;19943;-82
2022/11/05 08:40:27;;;;;;;;;;;;;;;-148.88;100.00;76642.63;5088298;28;19998;-86
2022/11/05 08:42:55;;;;;;;;;;;;;;;-148.88;100.00;76642.63;5090406;28;19909;-82
2022/11/05 08:45:20;;;;;;;;;;;;;;;-148.88;100.00;76630.44;5090709;28;19943;-85
2022/11/05 08:47:45;;;;;;;;;;;;;;;-148.88;100.00;76630.44;5082450;28;19962;-85
2022/11/05 08:50:10;;;;;;;;;;;;;;;-148.88;100.00;76634.50;5081824;28;19954;-85
2022/11/05 08:52:38;;;;;;;;;;;;;;;-148.88;100.00;76632.47;5083556;28;20003;-86
2022/11/05 08:55:03;;;;;;;;;;;;;;;-148.88;100.00;76632.47;5079484;28;19909;-86
2022/11/05 08:57:28;;;;;;;;;;;;;;;-148.88;100.00;76630.44;5082427;28;19954;-87
2022/11/05 08:59:54;;;;;;;;;;;;;;;-148.88;100.00;76628.41;5083152;28;19912;-86
2022/11/05 09:02:19;;;;;;;;;;;;;;;-148.88;100.00;76614.19;5081210;28;19931;-87
2022/11/05 09:04:44;;;;;;;;;;;;;;;-148.88;100.00;76601.97;5081624;28;19908;-88
2022/11/05 09:07:10;;;;;;;;;;;;;;;-148.88;100.00;76604.00;5080371;28;19908;-86
2022/11/05 09:09:35;;;;;;;;;;;;;;;-148.88;100.00;76612.13;5079859;28;20316;-86
2022/11/05 09:12:00;;;;;;;;;;;;;;;-148.88;100.00;76589.78;5081216;28;19908;-86
2022/11/05 09:14:25;;;;;;;;;;;;;;;-148.88;100.00;76589.78;5082232;28;20353;-87
2022/11/05 09:16:51;;;;;;;;;;;;;;;-148.88;100.00;76606.06;5081683;28;19909;-87
2022/11/05 09:19:16;;;;;;;;;;;;;;;-148.88;100.00;76612.13;5079283;28;19908;-87
2022/11/05 09:21:42;;;;;;;;;;;;;;;-148.88;100.00;76610.13;5079993;28;19908;-87
2022/11/05 09:24:07;;;;;;;;;;;;;;;-148.88;100.00;76606.06;5079440;28;19908;-87
2022/11/05 09:26:32;;;;;;;;;;;;;;;-148.88;100.00;76581.66;5079946;28;19912;-86
2022/11/05 09:28:57;;;;;;;;;;;;;;;-148.88;100.00;76581.66;5075875;28;20362;-84
2022/11/05 09:31:23;;;;;;;;;;;;;;;-148.88;100.00;76589.78;5076002;28;19987;-85
2022/11/05 09:33:48;;;;;;;;;;;;;;;-148.88;100.00;76604.00;5076305;28;19912;-84
2022/11/05 09:36:13;;;;;;;;;;;;;;;-148.88;100.00;76597.91;5078488;28;19908;-85
2022/11/05 09:38:39;;;;;;;;;;;;;;;-148.88;100.00;76567.44;5083407;28;20369;-87
2022/11/05 09:41:07;;;;;;;;;;;;;;;-148.88;100.00;76553.22;5086212;28;19980;-87
2022/11/05 09:43:37;;;;;;;;;;;;;;;-148.88;100.00;76541.03;5094658;28;20007;-83
2022/11/05 09:46:22;;;;;;;;;;;;;;;-148.88;100.00;76557.28;5095133;28;19930;-88
2022/11/05 09:48:50;;;;;;;;;;;;;;;-148.88;100.00;76565.41;5081482;28;20378;-87
2022/11/05 09:51:16;;;;;;;;;;;;;;;-148.88;100.00;76565.41;5084329;28;20053;-87
2022/11/05 09:53:42;;;;;;;;;;;;;;;-148.88;100.00;76553.22;5079599;28;19952;-87
2022/11/05 09:56:19;;;;;;;;;;;;;;;-148.88;100.00;76557.28;5080773;28;19912;-87
2022/11/05 09:58:53;;;;;;;;;;;;;;;-148.88;100.00;76549.16;5080866;28;20174;-86
2022/11/05 10:01:24;;;;;;;;;;;;;;;-148.88;100.00;76524.78;5081125;28;19908;-86
2022/11/05 10:03:52;;;;;;;;;;;;;;;-148.88;100.00;76514.63;5077821;28;19908;-85
2022/11/05 10:06:19;;;;;;;;;;;;;;;-148.88;100.00;76498.38;5073854;28;20014;-86
2022/11/05 10:08:46;;;;;;;;;;;;;;;-148.88;100.00;76490.25;5073134;28;19920;-83
2022/11/05 10:11:17;;;;;;;;;;;;;;;-148.88;100.00;76496.34;5075640;28;20007;-85
2022/11/05 10:14:17;;;;;;;;;;;;;;;-148.88;100.00;76476.03;5075691;28;19919;-85
2022/11/05 10:16:45;;;;;;;;;;;;;;;-148.88;100.00;76445.56;5041925;28;19912;-85
2022/11/05 10:19:15;;;;;;;;;;;;;;;-148.88;100.00;76439.47;5074602;28;19916;-86
2022/11/05 10:21:40;;;;;;;;;;;;;;;-148.88;100.00;76439.47;5075548;28;19908;-86
2022/11/05 10:24:12;;;;;;;;;;;;;;;-148.88;100.00;76419.16;5075512;28;20281;-87
2022/11/05 10:26:37;;;;;;;;;;;;;;;-148.88;100.00;76406.94;5073824;28;19920;-85
2022/11/05 10:29:02;;;;;;;;;;;;;;;-148.88;100.00;76372.41;5073591;28;19912;-85
2022/11/05 10:31:29;;;;;;;;;;;;;;;-148.88;100.00;76366.31;5075180;28;19909;-85
2022/11/05 10:33:59;;;;;;;;;;;;;;;-148.88;100.00;76337.88;5075376;28;19916;-85
2022/11/05 10:36:26;;;;;;;;;;;;;;;-148.88;100.00;76325.69;5073264;28;19915;-88
2022/11/05 10:38:52;;;;;;;;;;;;;;;-148.88;100.00;76297.25;5074562;28;19909;-89
2022/11/05 10:41:56;;;;;;;;;;;;;;;-148.88;98.72;76309.44;5072890;28;19987;-86
2022/11/05 10:44:36;;;;;;;;;;;;;;;-148.88;96.64;76289.13;5015113;28;19909;-86
2022/11/05 10:47:23;;;;;;;;;;;;;;;-148.88;97.20;76297.25;5014948;28;19909;-86
2022/11/05 10:49:57;;;;;;;;;;;;;;;-148.88;98.18;76281.00;5054609;28;19912;-86
2022/11/05 10:52:33;;;;;;;;;;;;;;;-148.88;97.17;76260.69;5073177;28;19908;-87
2022/11/05 10:55:15;;;;;;;;;;;;;;;-148.88;96.57;76224.13;5072969;28;19951;-84
2022/11/05 10:57:40;;;;;;;;;;;;;;;-148.88;94.15;76234.28;5073889;28;19908;-85
2022/11/05 11:00:15;;;;;;;;;;;;;;;-148.88;94.48;76230.22;5074113;28;19973;-85
2022/11/05 11:03:00;;;;;;;;;;;;;;;-148.88;92.34;76220.06;5082236;28;19963;-86
2022/11/05 11:05:28;;;;;;;;;;;;;;;-148.88;93.80;76240.38;5093787;28;19923;-84
2022/11/05 11:08:18;;;;;;;;;;;;;;;-148.88;94.56;76258.66;5086166;28;19948;-88
2022/11/05 11:10:59;;;;;;;;;;;;;;;-148.88;94.43;76203.81;5079037;28;19919;-87
2022/11/05 11:13:28;;;;;;;;;;;;;;;-148.88;93.20;76218.03;5078556;28;19920;-87
2022/11/05 11:16:12;;;;;;;;;;;;;;;-148.88;94.52;76175.38;5074075;28;20377;-84
2022/11/05 11:19:07;;;;;;;;;;;;;;;;;;;;;
2022/11/05 11:21:33;;;;;;;;;;;;;;;-148.88;91.04;76110.34;5077335;28;19995;-85
2022/11/05 11:24:05;;;;;;;;;;;;;;;-148.88;90.70;76122.56;5076797;28;19943;-86
2022/11/05 11:26:38;;;;;;;;;;;;;;;-148.88;90.62;76077.84;5078266;28;19955;-86
2022/11/05 11:29:03;;;;;;;;;;;;;;;-148.88;89.29;76096.13;5077723;28;19942;-85
2022/11/05 11:31:30;;;;;;;;;;;;;;;-148.88;88.36;76092.06;5076624;28;20267;-86
2022/11/05 11:34:19;;;;;;;;;;;;;;;-148.88;88.25;76106.28;5076407;28;20022;-86
2022/11/05 11:37:19;;;;;;;;;;;;;;;-148.88;89.43;76055.50;5075157;28;20358;-88
2022/11/05 11:39:58;;;;;;;;;;;;;;;-148.88;84.84;76037.22;5043146;28;20019;-86
2022/11/05 11:42:29;;;;;;;;;;;;;;;-148.88;85.85;76027.06;5074351;28;19908;-87
2022/11/05 11:44:57;;;;;;;;;;;;;;;-148.88;85.86;76075.81;5074398;28;20366;-85
2022/11/05 11:47:28;;;;;;;;;;;;;;;-148.88;85.07;76008.78;5075480;28;19916;-85
2022/11/05 11:50:00;;;;;;;;;;;;;;;-148.88;86.08;75984.41;5073778;28;19912;-84
2022/11/05 11:52:30;;;;;;;;;;;;;;;-148.88;82.80;75980.34;5072194;28;19920;-86
2022/11/05 11:55:10;;;;;;;;;;;;;;;-148.88;82.46;75947.84;5077375;28;19922;-85
2022/11/05 11:57:56;;;;;;;;;;;;;;;-148.88;80.58;75953.94;5077567;28;20352;-86
2022/11/05 12:00:30;;;;;;;;;;;;;;;-148.88;82.02;75974.25;5075475;28;20006;-85
2022/11/05 12:03:04;;;;;;;;;;;;;;;-148.88;84.01;76004.72;5076292;28;19912;-85
2022/11/05 12:05:38;;;;;;;;;;;;;;;-148.88;83.87;76033.16;5077202;28;19909;-86
2022/11/05 12:08:22;;;;;;;;;;;;;;;-148.88;83.08;75994.56;5075682;28;19918;-86
2022/11/05 12:10:53;;;;;;;;;;;;;;;-148.88;82.74;76053.47;5077185;28;20411;-86
2022/11/05 12:13:22;;;;;;;;;;;;;;;-148.88;82.71;76037.22;5075132;28;19915;-86
2022/11/05 12:16:10;;;;;;;;;;;;;;;-148.88;82.73;76049.41;5075911;28;19908;-83
2022/11/05 12:18:38;;;;;;;;;;;;;;;-148.88;82.69;76029.09;5076076;28;19934;-82
2022/11/05 12:21:19;;;;;;;;;;;;;;;-148.88;80.93;76057.53;5075866;28;20099;-83
2022/11/05 12:24:23;;;;;;;;;;;;;;;-148.88;80.89;76045.34;5078123;28;19908;-84
2022/11/05 12:26:57;;;;;;;;;;;;;;;-148.88;79.24;76020.97;5033933;28;19909;-82
2022/11/05 12:29:35;;;;;;;;;;;;;;;-148.88;80.00;76004.72;5017166;28;19913;-84
2022/11/05 12:32:25;;;;;;;;;;;;;;;-148.88;81.57;76025.03;5050807;28;19908;-83
2022/11/05 12:35:05;;;;;;;;;;;;;;;-148.88;80.95;76037.22;5075354;28;20289;-84
2022/11/05 12:37:40;;;;;;;;;;;;;;;-148.88;79.39;76031.13;5095031;28;19915;-82
2022/11/05 12:40:15;;;;;;;;;;;;;;;-148.88;79.73;76041.28;5086456;28;19919;-85
2022/11/05 12:43:06;;;;;;;;;;;;;;;-148.88;80.69;76029.09;5082194;28;19912;-84
2022/11/05 12:45:31;;;;;;;;;;;;;;;-148.88;81.83;76027.06;5079619;28;20354;-85
2022/11/05 12:48:07;;;;;;;;;;;;;;;-148.88;81.73;76041.28;5080283;28;19912;-86
2022/11/05 12:50:32;;;;;;;;;;;;;;;-148.88;80.76;76008.78;5080399;28;19953;-86
2022/11/05 12:52:58;;;;;;;;;;;;;;;-148.88;80.15;76012.84;5079151;28;19936;-87
2022/11/05 12:55:28;;;;;;;;;;;;;;;-148.88;79.12;75994.56;5080368;28;19912;-87
2022/11/05 12:58:02;;;;;;;;;;;;;;;-148.88;78.92;76000.66;5079819;28;19909;-86
2022/11/05 13:00:28;;;;;;;;;;;;;;;-148.88;80.67;76029.09;5080081;28;19930;-86
2022/11/05 13:03:09;;;;;;;;;;;;;;;-148.88;81.18;76045.34;5074835;28;19908;-84
2022/11/05 13:05:59;;;;;;;;;;;;;;;-148.88;81.28;76053.47;5075960;28;19908;-84
2022/11/05 13:08:31;;;;;;;;;;;;;;;-148.88;81.51;76061.59;5073758;28;19912;-87
2022/11/05 13:11:26;;;;;;;;;;;;;;;-148.88;82.32;76081.91;5074889;28;20373;-86